sensor_id;sensor_type;location;lat;lon;timestamp;temperature;humidity
22984;DHT22;11658;48.908;9.140;2024-03-23T05:02:44;9.60;99.90
22984;DHT22;11658;48.908;9.140;2024-03-23T05:05:10;9.60;99.90
22984;DHT22;11658;48.908;9.140;2024-03-23T05:07:36;9.70;99.90
22984;DHT22;11658;48.908;9.140;2024-03-23T05:10:02;9.70;99.90
22984;DHT22;11658;48.908;9.140;2024-03-23T05:12:28;9.60;99.90
22984;DHT22;11658;48.908;9.140;2024-03-23T05:14:54;9.60;99.90
22984;DHT22;11658;48.908;9.140;2024-03-23T05:17:19;9.60;99.90
22984;DHT22;11658;48.908;9.140;2024-03-23T05:19:45;9.60;99.90
22984;DHT22;11658;48.908;9.140;2024-03-23T05:22:11;9.50;99.90
22984;DHT22;11658;48.908;9.140;2024-03-23T05:24:36;9.50;99.90
22984;DHT22;11658;48.908;9.140;2024-03-23T05:27:02;9.60;99.90
22984;DHT22;11658;48.908;9.140;2024-03-23T05:29:27;9.50;99.90
22984;DHT22;11658;48.908;9.140;2024-03-23T05:31:54;9.50;99.90
22984;DHT22;11658;48.908;9.140;2024-03-23T05:34:22;9.60;99.90
22984;DHT22;11658;48.908;9.140;2024-03-23T05:36:47;9.60;99.90
22984;DHT22;11658;48.908;9.140;2024-03-23T05:39:14;9.50;99.90
22984;DHT22;11658;48.908;9.140;2024-03-23T05:41:42;9.50;99.90
22984;DHT22;11658;48.908;9.140;2024-03-23T05:44:07;9.40;99.90
22984;DHT22;11658;48.908;9.140;2024-03-23T05:46:33;9.30;99.90
22984;DHT22;11658;48.908;9.140;2024-03-23T05:49:01;9.20;99.90
22984;DHT22;11658;48.908;9.140;2024-03-23T05:51:27;8.90;99.90
22984;DHT22;11658;48.908;9.140;2024-03-23T05:53:53;9.10;99.90
22984;DHT22;11658;48.908;9.140;2024-03-23T05:56:20;9.00;99.90
22984;DHT22;11658;48.908;9.140;2024-03-23T05:58:45;9.00;99.90
22984;DHT22;11658;48.908;9.140;2024-03-23T06:01:12;9.00;99.90
22984;DHT22;11658;48.908;9.140;2024-03-23T06:03:38;9.00;99.90
22984;DHT22;11658;48.908;9.140;2024-03-23T06:06:04;9.00;99.90
22984;DHT22;11658;48.908;9.140;2024-03-23T06:08:30;9.00;99.90
22984;DHT22;11658;48.908;9.140;2024-03-23T06:10:55;8.90;99.90
22984;DHT22;11658;48.908;9.140;2024-03-23T06:13:21;8.90;99.90
22984;DHT22;11658;48.908;9.140;2024-03-23T06:15:50;8.90;99.90
22984;DHT22;11658;48.908;9.140;2024-03-23T06:18:15;8.90;99.90
22984;DHT22;11658;48.908;9.140;2024-03-23T06:20:41;8.90;99.90
22984;DHT22;11658;48.908;9.140;2024-03-23T06:23:06;8.90;99.90
22984;DHT22;11658;48.908;9.140;2024-03-23T06:25:32;8.90;99.90
22984;DHT22;11658;48.908;9.140;2024-03-23T06:27:58;8.90;99.90
22984;DHT22;11658;48.908;9.140;2024-03-23T06:30:24;8.80;99.90
22984;DHT22;11658;48.908;9.140;2024-03-23T06:32:49;8.80;99.90
22984;DHT22;11658;48.908;9.140;2024-03-23T06:35:15;8.80;99.90
22984;DHT22;11658;48.908;9.140;2024-03-23T06:37:40;8.70;99.90
22984;DHT22;11658;48.908;9.140;2024-03-23T06:40:07;8.70;99.90
22984;DHT22;11658;48.908;9.140;2024-03-23T06:42:35;8.70;99.90
22984;DHT22;11658;48.908;9.140;2024-03-23T06:45:01;8.70;99.90
22984;DHT22;11658;48.908;9.140;2024-03-23T06:47:26;8.60;99.90
22984;DHT22;11658;48.908;9.140;2024-03-23T06:49:52;8.60;99.90
22984;DHT22;11658;48.908;9.140;2024-03-23T06:52:17;8.60;99.90
22984;DHT22;11658;48.908;9.140;2024-03-23T06:54:43;8.90;99.90
22984;DHT22;11658;48.908;9.140;2024-03-23T06:57:10;8.80;99.90
22984;DHT22;11658;48.908;9.140;2024-03-23T06:59:37;8.60;99.90
22984;DHT22;11658;48.908;9.140;2024-03-23T07:02:04;8.60;99.90
22984;DHT22;11658;48.908;9.140;2024-03-23T07:04:30;8.50;99.90
22984;DHT22;11658;48.908;9.140;2024-03-23T07:06:56;8.60;99.90
22984;DHT22;11658;48.908;9.140;2024-03-23T07:09:21;8.90;99.90
22984;DHT22;11658;48.908;9.140;2024-03-23T07:11:53;9.00;99.90
22984;DHT22;11658;48.908;9.140;2024-03-23T07:14:18;9.10;99.90
22984;DHT22;11658;48.908;9.140;2024-03-23T07:16:44;9.10;99.90
22984;DHT22;11658;48.908;9.140;2024-03-23T07:19:10;9.10;99.90
22984;DHT22;11658;48.908;9.140;2024-03-23T07:21:35;8.90;99.90
22984;DHT22;11658;48.908;9.140;2024-03-23T07:24:01;8.90;99.90
22984;DHT22;11658;48.908;9.140;2024-03-23T07:26:26;8.80;99.90
22984;DHT22;11658;48.908;9.140;2024-03-23T07:28:52;8.70;99.90
22984;DHT22;11658;48.908;9.140;2024-03-23T07:31:18;8.70;99.90
22984;DHT22;11658;48.908;9.140;2024-03-23T07:33:49;8.70;99.90
22984;DHT22;11658;48.908;9.140;2024-03-23T07:36:15;8.60;99.90
22984;DHT22;11658;48.908;9.140;2024-03-23T07:38:41;8.40;99.90
22984;DHT22;11658;48.908;9.140;2024-03-23T07:41:11;8.30;99.90
22984;DHT22;11658;48.908;9.140;2024-03-23T07:43:40;8.40;99.90
22984;DHT22;11658;48.908;9.140;2024-03-23T07:46:08;8.40;99.90
22984;DHT22;11658;48.908;9.140;2024-03-23T07:48:34;8.10;99.90
22984;DHT22;11658;48.908;9.140;2024-03-23T07:51:10;8.30;99.90
22984;DHT22;11658;48.908;9.140;2024-03-23T07:53:37;8.30;99.90
22984;DHT22;11658;48.908;9.140;2024-03-23T07:56:07;8.20;99.90
22984;DHT22;11658;48.908;9.140;2024-03-23T07:58:33;8.20;99.90
22984;DHT22;11658;48.908;9.140;2024-03-23T08:01:06;8.00;99.90
22984;DHT22;11658;48.908;9.140;2024-03-23T08:03:34;7.90;99.90
22984;DHT22;11658;48.908;9.140;2024-03-23T08:06:07;7.90;99.90
22984;DHT22;11658;48.908;9.140;2024-03-23T08:08:33;8.00;99.90
22984;DHT22;11658;48.908;9.140;2024-03-23T08:10:59;8.20;99.90
22984;DHT22;11658;48.908;9.140;2024-03-23T08:13:25;8.40;99.90
22984;DHT22;11658;48.908;9.140;2024-03-23T08:15:50;7.90;99.90
22984;DHT22;11658;48.908;9.140;2024-03-23T08:18:16;7.90;99.90
22984;DHT22;11658;48.908;9.140;2024-03-23T08:20:41;7.60;99.90
22984;DHT22;11658;48.908;9.140;2024-03-23T08:23:07;7.20;99.90
22984;DHT22;11658;48.908;9.140;2024-03-23T08:25:33;7.30;99.90
22984;DHT22;11658;48.908;9.140;2024-03-23T08:27:59;7.40;99.90
22984;DHT22;11658;48.908;9.140;2024-03-23T08:30:25;7.50;99.90
22984;DHT22;11658;48.908;9.140;2024-03-23T08:32:51;7.80;99.90
22984;DHT22;11658;48.908;9.140;2024-03-23T08:35:17;8.00;99.90
22984;DHT22;11658;48.908;9.140;2024-03-23T08:37:43;8.20;99.90
22984;DHT22;11658;48.908;9.140;2024-03-23T08:40:08;8.40;99.90
22984;DHT22;11658;48.908;9.140;2024-03-23T08:42:34;8.30;99.90
22984;DHT22;11658;48.908;9.140;2024-03-23T08:45:00;8.10;99.90
22984;DHT22;11658;48.908;9.140;2024-03-23T08:47:26;8.30;99.90
22984;DHT22;11658;48.908;9.140;2024-03-23T08:49:51;8.60;99.90
22984;DHT22;11658;48.908;9.140;2024-03-23T08:52:17;8.60;99.90
22984;DHT22;11658;48.908;9.140;2024-03-23T08:54:43;8.70;99.90
22984;DHT22;11658;48.908;9.140;2024-03-23T08:57:08;9.20;99.90
22984;DHT22;11658;48.908;9.140;2024-03-23T08:59:34;8.30;99.90
22984;DHT22;11658;48.908;9.140;2024-03-23T09:02:00;8.50;99.90
22984;DHT22;11658;48.908;9.140;2024-03-23T09:04:26;8.70;99.90
22984;DHT22;11658;48.908;9.140;2024-03-23T09:06:51;8.80;99.90
22984;DHT22;11658;48.908;9.140;2024-03-23T09:09:17;8.90;99.90
22984;DHT22;11658;48.908;9.140;2024-03-23T09:11:43;8.90;99.90
22984;DHT22;11658;48.908;9.140;2024-03-23T09:14:08;8.80;99.90
22984;DHT22;11658;48.908;9.140;2024-03-23T09:16:34;8.70;99.90
22984;DHT22;11658;48.908;9.140;2024-03-23T09:19:00;8.70;99.90
22984;DHT22;11658;48.908;9.140;2024-03-23T09:21:26;8.60;99.90
22984;DHT22;11658;48.908;9.140;2024-03-23T09:23:51;8.60;99.90
22984;DHT22;11658;48.908;9.140;2024-03-23T09:26:17;8.60;99.90
22984;DHT22;11658;48.908;9.140;2024-03-23T09:28:42;8.50;99.90
22984;DHT22;11658;48.908;9.140;2024-03-23T09:31:09;8.30;99.90
22984;DHT22;11658;48.908;9.140;2024-03-23T09:33:37;8.50;99.90
22984;DHT22;11658;48.908;9.140;2024-03-23T09:36:06;8.40;99.90
22984;DHT22;11658;48.908;9.140;2024-03-23T09:38:33;8.50;99.90
22984;DHT22;11658;48.908;9.140;2024-03-23T09:40:58;8.90;99.90
22984;DHT22;11658;48.908;9.140;2024-03-23T09:43:24;8.90;99.90
22984;DHT22;11658;48.908;9.140;2024-03-23T09:45:50;8.90;99.90
22984;DHT22;11658;48.908;9.140;2024-03-23T09:48:17;9.00;99.90
22984;DHT22;11658;48.908;9.140;2024-03-23T09:50:44;8.90;99.90
22984;DHT22;11658;48.908;9.140;2024-03-23T09:53:11;9.00;99.90
22984;DHT22;11658;48.908;9.140;2024-03-23T09:55:38;9.50;99.90
22984;DHT22;11658;48.908;9.140;2024-03-23T09:58:04;9.40;99.90
22984;DHT22;11658;48.908;9.140;2024-03-23T10:00:31;9.20;99.90
22984;DHT22;11658;48.908;9.140;2024-03-23T10:02:57;9.10;99.90
22984;DHT22;11658;48.908;9.140;2024-03-23T10:05:27;9.20;99.90
22984;DHT22;11658;48.908;9.140;2024-03-23T10:07:53;9.10;99.90
22984;DHT22;11658;48.908;9.140;2024-03-23T10:10:19;9.50;99.90
22984;DHT22;11658;48.908;9.140;2024-03-23T10:12:48;9.30;99.90
22984;DHT22;11658;48.908;9.140;2024-03-23T10:15:35;9.00;99.90
22984;DHT22;11658;48.908;9.140;2024-03-23T10:18:20;9.20;99.90
22984;DHT22;11658;48.908;9.140;2024-03-23T10:23:36;8.70;99.90
22984;DHT22;11658;48.908;9.140;2024-03-23T10:26:15;8.70;99.90
22984;DHT22;11658;48.908;9.140;2024-03-23T10:31:23;8.70;99.90
22984;DHT22;11658;48.908;9.140;2024-03-23T10:33:49;8.90;99.90
22984;DHT22;11658;48.908;9.140;2024-03-23T10:36:15;8.90;99.90
22984;DHT22;11658;48.908;9.140;2024-03-23T10:38:43;9.00;99.90
22984;DHT22;11658;48.908;9.140;2024-03-23T10:41:09;8.90;99.90
22984;DHT22;11658;48.908;9.140;2024-03-23T10:43:36;8.60;99.90
22984;DHT22;11658;48.908;9.140;2024-03-23T10:46:02;8.10;99.90
22984;DHT22;11658;48.908;9.140;2024-03-23T10:48:28;8.20;99.90
22984;DHT22;11658;48.908;9.140;2024-03-23T10:50:54;7.80;99.90
22984;DHT22;11658;48.908;9.140;2024-03-23T10:53:22;7.30;99.90
22984;DHT22;11658;48.908;9.140;2024-03-23T10:55:50;6.80;99.90
22984;DHT22;11658;48.908;9.140;2024-03-23T10:58:18;6.50;99.90
22984;DHT22;11658;48.908;9.140;2024-03-23T11:00:46;6.30;99.90
22984;DHT22;11658;48.908;9.140;2024-03-23T11:03:34;5.90;99.90
22984;DHT22;11658;48.908;9.140;2024-03-23T11:06:01;6.00;99.90
22984;DHT22;11658;48.908;9.140;2024-03-23T11:08:39;5.90;99.90
22984;DHT22;11658;48.908;9.140;2024-03-23T11:11:25;6.00;99.90
22984;DHT22;11658;48.908;9.140;2024-03-23T11:13:53;6.10;99.90
22984;DHT22;11658;48.908;9.140;2024-03-23T11:16:25;6.30;99.90
22984;DHT22;11658;48.908;9.140;2024-03-23T11:18:53;6.60;99.90
22984;DHT22;11658;48.908;9.140;2024-03-23T11:21:56;6.50;99.90
22984;DHT22;11658;48.908;9.140;2024-03-23T11:24:22;6.60;99.90
22984;DHT22;11658;48.908;9.140;2024-03-23T11:26:48;6.80;99.90
22984;DHT22;11658;48.908;9.140;2024-03-23T11:29:16;6.80;99.90
22984;DHT22;11658;48.908;9.140;2024-03-23T11:31:49;6.90;99.90
22984;DHT22;11658;48.908;9.140;2024-03-23T11:34:21;6.90;99.90
22984;DHT22;11658;48.908;9.140;2024-03-23T11:36:47;6.80;99.90
22984;DHT22;11658;48.908;9.140;2024-03-23T11:39:20;7.00;99.90
22984;DHT22;11658;48.908;9.140;2024-03-23T11:41:50;7.10;99.90
22984;DHT22;11658;48.908;9.140;2024-03-23T11:46:42;7.40;99.90
22984;DHT22;11658;48.908;9.140;2024-03-23T11:49:20;7.50;99.90
22984;DHT22;11658;48.908;9.140;2024-03-23T11:51:47;7.50;99.90
22984;DHT22;11658;48.908;9.140;2024-03-23T11:54:13;7.40;99.90
22984;DHT22;11658;48.908;9.140;2024-03-23T11:56:38;7.60;99.90
22984;DHT22;11658;48.908;9.140;2024-03-23T11:59:04;7.80;99.90
22984;DHT22;11658;48.908;9.140;2024-03-23T12:01:31;7.70;99.90
22984;DHT22;11658;48.908;9.140;2024-03-23T12:03:56;7.70;99.90
22984;DHT22;11658;48.908;9.140;2024-03-23T12:06:22;7.80;99.90
22984;DHT22;11658;48.908;9.140;2024-03-23T12:08:47;7.90;99.90
22984;DHT22;11658;48.908;9.140;2024-03-23T12:11:14;8.00;99.90
22984;DHT22;11658;48.908;9.140;2024-03-23T12:13:41;8.10;99.90
22984;DHT22;11658;48.908;9.140;2024-03-23T12:16:18;8.20;99.90
22984;DHT22;11658;48.908;9.140;2024-03-23T12:18:49;8.40;99.90
22984;DHT22;11658;48.908;9.140;2024-03-23T12:21:16;8.90;99.90
22984;DHT22;11658;48.908;9.140;2024-03-23T12:23:43;9.40;99.90
22984;DHT22;11658;48.908;9.140;2024-03-23T12:26:12;9.60;99.90
22984;DHT22;11658;48.908;9.140;2024-03-23T12:28:38;9.60;99.90
22984;DHT22;11658;48.908;9.140;2024-03-23T12:31:04;9.50;99.90
22984;DHT22;11658;48.908;9.140;2024-03-23T12:33:31;9.20;99.90
22984;DHT22;11658;48.908;9.140;2024-03-23T12:35:56;9.20;99.90
22984;DHT22;11658;48.908;9.140;2024-03-23T12:38:22;9.10;99.90
22984;DHT22;11658;48.908;9.140;2024-03-23T12:40:48;8.90;99.90
22984;DHT22;11658;48.908;9.140;2024-03-23T12:43:14;9.00;99.90
22984;DHT22;11658;48.908;9.140;2024-03-23T12:45:40;9.00;99.90
22984;DHT22;11658;48.908;9.140;2024-03-23T12:48:06;8.90;99.90
22984;DHT22;11658;48.908;9.140;2024-03-23T12:50:32;9.00;99.90
22984;DHT22;11658;48.908;9.140;2024-03-23T12:52:58;9.00;99.90
22984;DHT22;11658;48.908;9.140;2024-03-23T12:55:23;9.00;99.90
22984;DHT22;11658;48.908;9.140;2024-03-23T12:57:49;9.20;99.90
22984;DHT22;11658;48.908;9.140;2024-03-23T13:00:15;9.80;99.90
22984;DHT22;11658;48.908;9.140;2024-03-23T13:02:43;10.10;99.90
22984;DHT22;11658;48.908;9.140;2024-03-23T13:05:09;10.40;99.90
22984;DHT22;11658;48.908;9.140;2024-03-23T13:07:35;10.30;99.90
22984;DHT22;11658;48.908;9.140;2024-03-23T13:10:03;10.20;99.90
22984;DHT22;11658;48.908;9.140;2024-03-23T13:12:29;10.20;99.90
22984;DHT22;11658;48.908;9.140;2024-03-23T13:14:54;10.20;99.90
22984;DHT22;11658;48.908;9.140;2024-03-23T13:17:20;10.20;99.90
22984;DHT22;11658;48.908;9.140;2024-03-23T13:19:45;10.10;99.90
22984;DHT22;11658;48.908;9.140;2024-03-23T13:22:11;10.20;99.90
22984;DHT22;11658;48.908;9.140;2024-03-23T13:24:37;10.20;99.90
22984;DHT22;11658;48.908;9.140;2024-03-23T13:27:03;10.00;99.90
22984;DHT22;11658;48.908;9.140;2024-03-23T13:29:30;10.00;99.90
22984;DHT22;11658;48.908;9.140;2024-03-23T13:31:56;10.10;99.90
22984;DHT22;11658;48.908;9.140;2024-03-23T13:34:22;10.10;99.90
22984;DHT22;11658;48.908;9.140;2024-03-23T13:36:47;10.30;99.90
22984;DHT22;11658;48.908;9.140;2024-03-23T13:39:15;10.30;99.90
22984;DHT22;11658;48.908;9.140;2024-03-23T13:41:42;10.40;99.90
22984;DHT22;11658;48.908;9.140;2024-03-23T13:44:09;10.30;99.90
22984;DHT22;11658;48.908;9.140;2024-03-23T13:46:39;10.50;99.90
22984;DHT22;11658;48.908;9.140;2024-03-23T13:49:05;10.10;99.90
22984;DHT22;11658;48.908;9.140;2024-03-23T13:51:31;9.40;99.90
22984;DHT22;11658;48.908;9.140;2024-03-23T13:53:57;8.00;99.90
22984;DHT22;11658;48.908;9.140;2024-03-23T13:56:26;7.20;99.90
22984;DHT22;11658;48.908;9.140;2024-03-23T13:58:53;6.90;99.90
22984;DHT22;11658;48.908;9.140;2024-03-23T14:01:19;6.80;99.90
22984;DHT22;11658;48.908;9.140;2024-03-23T14:03:45;6.70;99.90
22984;DHT22;11658;48.908;9.140;2024-03-23T14:06:10;6.50;99.90
22984;DHT22;11658;48.908;9.140;2024-03-23T14:08:37;6.30;99.90
22984;DHT22;11658;48.908;9.140;2024-03-23T14:11:07;6.10;99.90
22984;DHT22;11658;48.908;9.140;2024-03-23T14:13:32;5.80;99.90
22984;DHT22;11658;48.908;9.140;2024-03-23T14:15:59;5.70;99.90
22984;DHT22;11658;48.908;9.140;2024-03-23T14:18:25;5.90;99.90
22984;DHT22;11658;48.908;9.140;2024-03-23T14:20:58;6.00;99.90
22984;DHT22;11658;48.908;9.140;2024-03-23T14:23:26;6.10;99.90
22984;DHT22;11658;48.908;9.140;2024-03-23T14:25:53;6.10;99.90
22984;DHT22;11658;48.908;9.140;2024-03-23T14:28:19;6.20;99.90
22984;DHT22;11658;48.908;9.140;2024-03-23T14:30:45;6.40;99.90
22984;DHT22;11658;48.908;9.140;2024-03-23T14:33:10;6.60;99.90
22984;DHT22;11658;48.908;9.140;2024-03-23T14:35:36;6.90;99.90
22984;DHT22;11658;48.908;9.140;2024-03-23T14:38:03;7.10;99.90
22984;DHT22;11658;48.908;9.140;2024-03-23T14:40:29;7.30;99.90
22984;DHT22;11658;48.908;9.140;2024-03-23T14:42:55;7.40;99.90
22984;DHT22;11658;48.908;9.140;2024-03-23T14:45:23;7.60;99.90
22984;DHT22;11658;48.908;9.140;2024-03-23T14:47:50;7.60;99.90
22984;DHT22;11658;48.908;9.140;2024-03-23T14:50:16;7.70;99.90
22984;DHT22;11658;48.908;9.140;2024-03-23T14:52:47;8.00;99.90
22984;DHT22;11658;48.908;9.140;2024-03-23T14:55:13;8.20;99.90
22984;DHT22;11658;48.908;9.140;2024-03-23T14:57:39;8.30;99.90
22984;DHT22;11658;48.908;9.140;2024-03-23T15:00:09;8.10;99.90
22984;DHT22;11658;48.908;9.140;2024-03-23T15:02:38;8.00;99.90
22984;DHT22;11658;48.908;9.140;2024-03-23T15:05:04;7.60;99.90
22984;DHT22;11658;48.908;9.140;2024-03-23T15:07:33;7.70;99.90
22984;DHT22;11658;48.908;9.140;2024-03-23T15:09:58;7.70;99.90
22984;DHT22;11658;48.908;9.140;2024-03-23T15:12:24;7.60;99.90
22984;DHT22;11658;48.908;9.140;2024-03-23T15:14:50;7.90;99.90
22984;DHT22;11658;48.908;9.140;2024-03-23T15:17:16;8.00;99.90
22984;DHT22;11658;48.908;9.140;2024-03-23T15:19:41;8.10;99.90
22984;DHT22;11658;48.908;9.140;2024-03-23T15:22:08;8.20;99.90
22984;DHT22;11658;48.908;9.140;2024-03-23T15:24:34;8.10;99.90
22984;DHT22;11658;48.908;9.140;2024-03-23T15:27:01;8.40;99.90
22984;DHT22;11658;48.908;9.140;2024-03-23T15:29:26;8.40;99.90
22984;DHT22;11658;48.908;9.140;2024-03-23T15:31:52;8.30;99.90
22984;DHT22;11658;48.908;9.140;2024-03-23T15:34:19;8.10;99.90
22984;DHT22;11658;48.908;9.140;2024-03-23T15:36:47;8.40;99.90
22984;DHT22;11658;48.908;9.140;2024-03-23T15:39:14;8.10;99.90
22984;DHT22;11658;48.908;9.140;2024-03-23T15:41:40;7.90;99.90
22984;DHT22;11658;48.908;9.140;2024-03-23T15:44:05;7.80;99.90
22984;DHT22;11658;48.908;9.140;2024-03-23T15:46:31;7.70;99.90
22984;DHT22;11658;48.908;9.140;2024-03-23T15:48:57;7.80;99.90
22984;DHT22;11658;48.908;9.140;2024-03-23T15:51:22;7.40;99.90
22984;DHT22;11658;48.908;9.140;2024-03-23T15:53:49;7.50;99.90
22984;DHT22;11658;48.908;9.140;2024-03-23T15:56:17;7.70;99.90
22984;DHT22;11658;48.908;9.140;2024-03-23T15:58:43;7.70;99.90
22984;DHT22;11658;48.908;9.140;2024-03-23T16:01:09;7.80;99.90
22984;DHT22;11658;48.908;9.140;2024-03-23T16:03:36;7.90;99.90
22984;DHT22;11658;48.908;9.140;2024-03-23T16:06:03;8.00;99.90
22984;DHT22;11658;48.908;9.140;2024-03-23T16:08:30;8.00;99.90
22984;DHT22;11658;48.908;9.140;2024-03-23T16:11:00;8.00;99.90
22984;DHT22;11658;48.908;9.140;2024-03-23T16:13:26;8.00;99.90
22984;DHT22;11658;48.908;9.140;2024-03-23T16:16:00;8.00;99.90
22984;DHT22;11658;48.908;9.140;2024-03-23T16:18:26;7.90;99.90
22984;DHT22;11658;48.908;9.140;2024-03-23T16:20:57;7.80;99.90
22984;DHT22;11658;48.908;9.140;2024-03-23T16:23:24;7.70;99.90
22984;DHT22;11658;48.908;9.140;2024-03-23T16:25:50;7.60;99.90
22984;DHT22;11658;48.908;9.140;2024-03-23T16:28:26;7.50;99.90
22984;DHT22;11658;48.908;9.140;2024-03-23T16:30:58;7.40;99.90
22984;DHT22;11658;48.908;9.140;2024-03-23T16:33:24;7.40;99.90
22984;DHT22;11658;48.908;9.140;2024-03-23T16:35:56;7.50;99.90
22984;DHT22;11658;48.908;9.140;2024-03-23T16:38:22;7.50;99.90
22984;DHT22;11658;48.908;9.140;2024-03-23T16:40:55;7.50;99.90
22984;DHT22;11658;48.908;9.140;2024-03-23T16:43:21;7.30;99.90
22984;DHT22;11658;48.908;9.140;2024-03-23T16:45:57;7.20;99.90
22984;DHT22;11658;48.908;9.140;2024-03-23T16:48:27;7.00;99.90
22984;DHT22;11658;48.908;9.140;2024-03-23T16:50:53;6.80;99.90
22984;DHT22;11658;48.908;9.140;2024-03-23T16:53:21;6.80;99.90
22984;DHT22;11658;48.908;9.140;2024-03-23T16:55:54;6.80;99.90
22984;DHT22;11658;48.908;9.140;2024-03-23T16:58:20;6.70;99.90
22984;DHT22;11658;48.908;9.140;2024-03-23T17:00:46;6.70;99.90
22984;DHT22;11658;48.908;9.140;2024-03-23T17:03:14;6.70;99.90
22984;DHT22;11658;48.908;9.140;2024-03-23T17:05:39;6.60;99.90
22984;DHT22;11658;48.908;9.140;2024-03-23T17:08:06;6.60;99.90
22984;DHT22;11658;48.908;9.140;2024-03-23T17:10:32;6.60;99.90
22984;DHT22;11658;48.908;9.140;2024-03-23T17:12:58;6.50;99.90
22984;DHT22;11658;48.908;9.140;2024-03-23T17:15:23;6.50;99.90
22984;DHT22;11658;48.908;9.140;2024-03-23T17:17:49;6.50;99.90
22984;DHT22;11658;48.908;9.140;2024-03-23T17:20:15;6.40;99.90
22984;DHT22;11658;48.908;9.140;2024-03-23T17:22:41;6.30;99.90
22984;DHT22;11658;48.908;9.140;2024-03-23T17:25:06;5.90;99.90
22984;DHT22;11658;48.908;9.140;2024-03-23T17:27:33;5.60;99.90
22984;DHT22;11658;48.908;9.140;2024-03-23T17:29:58;5.30;99.90
22984;DHT22;11658;48.908;9.140;2024-03-23T17:32:24;5.00;99.90
22984;DHT22;11658;48.908;9.140;2024-03-23T17:34:52;4.90;99.90
22984;DHT22;11658;48.908;9.140;2024-03-23T17:37:18;4.70;99.90
22984;DHT22;11658;48.908;9.140;2024-03-23T17:39:44;4.60;99.90
22984;DHT22;11658;48.908;9.140;2024-03-23T17:42:10;4.70;99.90
22984;DHT22;11658;48.908;9.140;2024-03-23T17:44:36;4.70;99.90
22984;DHT22;11658;48.908;9.140;2024-03-23T17:47:02;4.90;99.90
22984;DHT22;11658;48.908;9.140;2024-03-23T17:49:27;4.80;99.90
22984;DHT22;11658;48.908;9.140;2024-03-23T17:51:53;4.90;99.90
22984;DHT22;11658;48.908;9.140;2024-03-23T17:54:18;5.00;99.90
22984;DHT22;11658;48.908;9.140;2024-03-23T17:56:45;5.00;99.90
22984;DHT22;11658;48.908;9.140;2024-03-23T17:59:10;4.80;99.90
22984;DHT22;11658;48.908;9.140;2024-03-23T18:01:36;4.60;99.90
22984;DHT22;11658;48.908;9.140;2024-03-23T18:04:02;4.30;99.90
22984;DHT22;11658;48.908;9.140;2024-03-23T18:06:27;4.30;99.90
22984;DHT22;11658;48.908;9.140;2024-03-23T18:08:53;4.10;99.90
22984;DHT22;11658;48.908;9.140;2024-03-23T18:11:18;4.00;99.90
22984;DHT22;11658;48.908;9.140;2024-03-23T18:13:44;4.00;99.90
22984;DHT22;11658;48.908;9.140;2024-03-23T18:16:09;4.00;99.90
22984;DHT22;11658;48.908;9.140;2024-03-23T18:18:35;4.00;99.90
22984;DHT22;11658;48.908;9.140;2024-03-23T18:21:01;4.00;99.90
22984;DHT22;11658;48.908;9.140;2024-03-23T18:23:27;3.90;99.90
22984;DHT22;11658;48.908;9.140;2024-03-23T18:25:56;4.00;99.90
22984;DHT22;11658;48.908;9.140;2024-03-23T18:28:25;3.90;99.90
22984;DHT22;11658;48.908;9.140;2024-03-23T18:31:00;3.80;99.90
22984;DHT22;11658;48.908;9.140;2024-03-23T18:33:32;3.80;99.90
22984;DHT22;11658;48.908;9.140;2024-03-23T18:35:58;3.90;99.90
22984;DHT22;11658;48.908;9.140;2024-03-23T18:38:25;3.90;99.90
22984;DHT22;11658;48.908;9.140;2024-03-23T18:40:50;3.80;99.90
22984;DHT22;11658;48.908;9.140;2024-03-23T18:43:16;3.90;99.90
22984;DHT22;11658;48.908;9.140;2024-03-23T18:45:49;3.90;99.90
22984;DHT22;11658;48.908;9.140;2024-03-23T18:48:15;4.00;99.90
22984;DHT22;11658;48.908;9.140;2024-03-23T18:50:41;3.90;99.90
22984;DHT22;11658;48.908;9.140;2024-03-23T18:53:07;3.90;99.90
22984;DHT22;11658;48.908;9.140;2024-03-23T18:55:38;3.80;99.90
22984;DHT22;11658;48.908;9.140;2024-03-23T18:58:04;3.90;99.90
22984;DHT22;11658;48.908;9.140;2024-03-23T19:00:30;3.90;99.90
22984;DHT22;11658;48.908;9.140;2024-03-23T19:02:56;3.90;99.90
22984;DHT22;11658;48.908;9.140;2024-03-23T19:05:23;3.90;99.90
22984;DHT22;11658;48.908;9.140;2024-03-23T19:07:48;3.90;99.90
22984;DHT22;11658;48.908;9.140;2024-03-23T19:10:14;3.90;99.90
22984;DHT22;11658;48.908;9.140;2024-03-23T19:12:39;3.90;99.90
22984;DHT22;11658;48.908;9.140;2024-03-23T19:15:09;4.00;99.90
22984;DHT22;11658;48.908;9.140;2024-03-23T19:17:35;4.00;99.90
22984;DHT22;11658;48.908;9.140;2024-03-23T19:20:01;3.90;99.90
22984;DHT22;11658;48.908;9.140;2024-03-23T19:22:29;3.90;99.90
22984;DHT22;11658;48.908;9.140;2024-03-23T19:24:54;3.90;99.90
22984;DHT22;11658;48.908;9.140;2024-03-23T19:27:21;3.90;99.90
22984;DHT22;11658;48.908;9.140;2024-03-23T19:29:46;3.90;99.90
22984;DHT22;11658;48.908;9.140;2024-03-23T19:32:12;3.80;99.90
22984;DHT22;11658;48.908;9.140;2024-03-23T19:34:37;3.80;99.90
22984;DHT22;11658;48.908;9.140;2024-03-23T19:37:03;3.80;99.90
22984;DHT22;11658;48.908;9.140;2024-03-23T19:39:29;3.80;99.90
22984;DHT22;11658;48.908;9.140;2024-03-23T19:41:55;3.80;99.90
22984;DHT22;11658;48.908;9.140;2024-03-23T19:44:21;3.80;99.90
22984;DHT22;11658;48.908;9.140;2024-03-23T19:46:47;3.80;99.90
22984;DHT22;11658;48.908;9.140;2024-03-23T19:49:12;3.70;99.90
22984;DHT22;11658;48.908;9.140;2024-03-23T19:51:38;3.70;99.90
22984;DHT22;11658;48.908;9.140;2024-03-23T19:54:03;3.70;99.90
22984;DHT22;11658;48.908;9.140;2024-03-23T19:56:29;3.70;99.90
22984;DHT22;11658;48.908;9.140;2024-03-23T19:58:54;3.60;99.90
22984;DHT22;11658;48.908;9.140;2024-03-23T20:01:20;3.60;99.90
22984;DHT22;11658;48.908;9.140;2024-03-23T20:03:47;3.60;99.90
22984;DHT22;11658;48.908;9.140;2024-03-23T20:06:14;3.60;99.90
22984;DHT22;11658;48.908;9.140;2024-03-23T20:08:39;3.60;99.90
22984;DHT22;11658;48.908;9.140;2024-03-23T20:11:05;3.60;99.90
22984;DHT22;11658;48.908;9.140;2024-03-23T20:13:30;3.60;99.90
22984;DHT22;11658;48.908;9.140;2024-03-23T20:15:57;3.60;99.90
22984;DHT22;11658;48.908;9.140;2024-03-23T20:18:23;3.60;99.90
22984;DHT22;11658;48.908;9.140;2024-03-23T20:20:53;3.60;99.90
22984;DHT22;11658;48.908;9.140;2024-03-23T20:23:19;3.50;99.90
22984;DHT22;11658;48.908;9.140;2024-03-23T20:25:53;3.60;99.90
22984;DHT22;11658;48.908;9.140;2024-03-23T20:28:19;3.60;99.90
22984;DHT22;11658;48.908;9.140;2024-03-23T20:30:46;3.50;99.90
22984;DHT22;11658;48.908;9.140;2024-03-23T20:33:12;3.50;99.90
22984;DHT22;11658;48.908;9.140;2024-03-23T20:35:45;3.60;99.90
22984;DHT22;11658;48.908;9.140;2024-03-23T20:38:11;3.60;99.90
22984;DHT22;11658;48.908;9.140;2024-03-23T20:40:37;3.50;99.90
22984;DHT22;11658;48.908;9.140;2024-03-23T20:43:07;3.50;99.90
22984;DHT22;11658;48.908;9.140;2024-03-23T20:45:34;3.60;99.90
22984;DHT22;11658;48.908;9.140;2024-03-23T20:48:00;3.50;99.90
22984;DHT22;11658;48.908;9.140;2024-03-23T20:50:26;3.50;99.90
22984;DHT22;11658;48.908;9.140;2024-03-23T20:52:51;3.50;99.90